KDSV/DSV METAR and TAF weather

Enter ICAO airport designator
Station Type Date Time Source
KDSV METAR 2021/06/22 22:54 UTC NOAA

KDSV 222254Z AUTO 32011KT 10SM FEW055 BKN070 17/06 A2993 RMK AO2 SLP142 T01720061


Station Type Date Time Source
KDSV Decoded METAR 2021/06/22 22:54 UTC NOAA

DANSVILLE MUNICIPAL AIRPORT, NY, United States (KDSV) 42-34N 077-43W 198M
Jun 22, 2021 - 06:54 PM EDT / 2021.06.22 2254 UTC
Wind: from the NW (320 degrees) at 13 MPH (11 KT):0
Visibility: 10 mile(s):0
Sky conditions: mostly cloudy
Temperature: 63.0 F (17.2 C)
Dew Point: 43.0 F (6.1 C)
Relative Humidity: 47%
Pressure (altimeter): 29.93 in. Hg (1013 hPa)
ob: KDSV 222254Z AUTO 32011KT 10SM FEW055 BKN070 17/06 A2993 RMK AO2 SLP142 T01720061
cycle: 23

Station Type Date Time Source
KDSV TAF UTC NOAA

Error!

Example: see airport list